PWSweather.com
Personal Weather Stations
Station Observations
KCTCOLEB1
Sandy Brook, Colebrook, CT 06021

Sandy BrookColebrook, CT 06021

Lat: 42.0018, Lon: -73.0825

Elevation: 935

Station Type: Davis Vantage Pro2 + Solar + UV

Latest ConditionsUpdated 10:30:00 AM EDT Wednesday, Apr 25, 2018
Currently Today's Max Today's Min Today's Average
Temperature 49.7°F9.8°C 50.9°F10.5°C 45.3°F7.4°C 47.8°F8.8°C
Dew Point 48.9°F9.4°C 48.9°F9.4°C 39.5°F4.2°C 44.2°F6.8°C
Winds 1.2 mph SW1.9 kmh SW 2.3 mph SW3.7 kmh SW - 0.2 mph 0.3 kmh
Wind Gusts 3.5 mph5.6 kmh 8.1 mph13.0 kmh - -
Humidity 97% 97% 65% 88%
Pressure 29.93 in1013.5 mb 30.20 in1022.7 mb 29.93 in1013.5 mb -
Precipitation - 0.20 in5.1 mm - -
Hour Temp Dew Point Humidity Winds Wind Gusts Pressure Precip Precip Rate Daily Precip Total
10:30 AM 49.7°F9.8°C 48.9°F9.4°C 97% 1.2 mph SW1.9 kmh SW 3.5 mph5.6 kmh 29.93 in1013.5 mb - 0.00 in0.0 mm 0.20 in5.1 mm
10:20 AM 49.5°F9.7°C 48.7°F9.3°C 97% Calm Calm 3.5 mph5.6 kmh 29.94 in1013.9 mb - 0.01 in0.3 mm 0.20 in5.1 mm
10:10 AM 49.2°F9.6°C 48.4°F9.1°C 97% Calm Calm -- 29.94 in1013.9 mb - 0.00 in0.0 mm 0.19 in4.8 mm
10:00 AM 49.1°F9.5°C 48.3°F9.1°C 97% Calm Calm 1.2 mph1.9 kmh 29.94 in1013.9 mb - 0.00 in0.0 mm 0.19 in4.8 mm
09:50 AM 48.9°F9.4°C 48.1°F8.9°C 97% 2.3 mph SW3.7 kmh SW 8.1 mph13.0 kmh 29.94 in1013.9 mb - 0.00 in0.0 mm 0.19 in4.8 mm
09:40 AM 48.6°F9.2°C 47.8°F8.8°C 97% 1.2 mph WSW1.9 kmh WSW 3.5 mph5.6 kmh 29.95 in1014.2 mb - 0.01 in0.3 mm 0.19 in4.8 mm
09:30 AM 48.5°F9.2°C 47.7°F8.7°C 97% Calm Calm 1.2 mph1.9 kmh 29.95 in1014.2 mb - 0.00 in0.0 mm 0.18 in4.6 mm
09:20 AM 48.4°F9.1°C 47.6°F8.7°C 97% 1.2 mph WSW1.9 kmh WSW 3.5 mph5.6 kmh 29.96 in1014.6 mb - 0.00 in0.0 mm 0.18 in4.6 mm
09:10 AM 48.2°F9.0°C 47.4°F8.6°C 97% Calm Calm -- 29.96 in1014.6 mb - 0.00 in0.0 mm 0.18 in4.6 mm
09:00 AM 48.1°F8.9°C 47.2°F8.4°C 97% Calm Calm 3.5 mph5.6 kmh 29.97 in1014.9 mb - 0.01 in0.3 mm 0.18 in4.6 mm
08:50 AM 47.9°F8.8°C 47.1°F8.4°C 97% Calm Calm 1.2 mph1.9 kmh 29.97 in1014.9 mb - 0.00 in0.0 mm 0.17 in4.3 mm
08:40 AM 47.7°F8.7°C 46.9°F8.3°C 97% 1.2 mph SW1.9 kmh SW 3.5 mph5.6 kmh 29.98 in1015.2 mb - 0.00 in0.0 mm 0.17 in4.3 mm
08:30 AM 47.4°F8.6°C 46.3°F7.9°C 96% 1.2 mph SW1.9 kmh SW 2.3 mph3.7 kmh 29.98 in1015.2 mb - 0.01 in0.3 mm 0.17 in4.3 mm
08:20 AM 47.2°F8.4°C 46.1°F7.8°C 96% Calm Calm -- 29.99 in1015.6 mb - 0.00 in0.0 mm 0.16 in4.1 mm
08:10 AM 47.0°F8.3°C 45.9°F7.7°C 96% Calm Calm -- 29.99 in1015.6 mb - 0.00 in0.0 mm 0.16 in4.1 mm
08:00 AM 46.7°F8.2°C 45.7°F7.6°C 96% Calm Calm 1.2 mph1.9 kmh 30.00 in1015.9 mb - 0.00 in0.0 mm 0.16 in4.1 mm
07:50 AM 46.4°F8.0°C 45.4°F7.4°C 96% Calm Calm -- 30.00 in1015.9 mb - 0.00 in0.0 mm 0.16 in4.1 mm
07:40 AM 46.3°F7.9°C 45.2°F7.3°C 96% Calm Calm -- 30.01 in1016.3 mb - 0.01 in0.3 mm 0.16 in4.1 mm
07:30 AM 46.1°F7.8°C 45.0°F7.2°C 96% Calm Calm -- 30.01 in1016.3 mb - 0.00 in0.0 mm 0.15 in3.8 mm
07:20 AM 46.0°F7.8°C 44.9°F7.2°C 96% Calm Calm -- 30.02 in1016.6 mb - 0.01 in0.3 mm 0.15 in3.8 mm
06:50 AM 45.6°F7.6°C 44.3°F6.8°C 95% Calm Calm -- 30.03 in1016.9 mb - 0.01 in0.3 mm 0.14 in3.6 mm
06:40 AM 45.5°F7.5°C 44.2°F6.8°C 95% Calm Calm 2.3 mph3.7 kmh 30.03 in1016.9 mb - 0.01 in0.3 mm 0.14 in3.6 mm
06:30 AM 45.4°F7.4°C 44.1°F6.7°C 95% Calm Calm -- 30.04 in1017.3 mb - 0.00 in0.0 mm 0.13 in3.3 mm
06:20 AM 45.3°F7.4°C 44.0°F6.7°C 95% Calm Calm -- 30.04 in1017.3 mb - 0.00 in0.0 mm 0.13 in3.3 mm
06:10 AM 45.3°F7.4°C 44.0°F6.7°C 95% Calm Calm -- 30.04 in1017.3 mb - 0.00 in0.0 mm 0.13 in3.3 mm
06:00 AM 45.3°F7.4°C 43.7°F6.5°C 94% Calm Calm -- 30.05 in1017.6 mb - 0.00 in0.0 mm 0.13 in3.3 mm
05:50 AM 45.3°F7.4°C 43.7°F6.5°C 94% Calm Calm 1.2 mph1.9 kmh 30.05 in1017.6 mb - 0.01 in0.3 mm 0.13 in3.3 mm
05:40 AM 45.3°F7.4°C 43.7°F6.5°C 94% Calm Calm -- 30.05 in1017.6 mb - 0.00 in0.0 mm 0.12 in3.0 mm
05:30 AM 45.3°F7.4°C 43.7°F6.5°C 94% Calm Calm -- 30.05 in1017.6 mb - 0.00 in0.0 mm 0.12 in3.0 mm
05:20 AM 45.3°F7.4°C 43.7°F6.5°C 94% Calm Calm -- 30.05 in1017.6 mb - 0.01 in0.3 mm 0.12 in3.0 mm
05:10 AM 45.3°F7.4°C 43.7°F6.5°C 94% Calm Calm -- 30.06 in1017.9 mb - 0.01 in0.3 mm 0.11 in2.8 mm
05:00 AM 45.4°F7.4°C 43.5°F6.4°C 93% Calm Calm -- 30.06 in1017.9 mb - 0.01 in0.3 mm 0.10 in2.5 mm
04:50 AM 45.4°F7.4°C 43.5°F6.4°C 93% Calm Calm -- 30.07 in1018.3 mb - 0.00 in0.0 mm 0.09 in2.3 mm
04:40 AM 45.5°F7.5°C 43.3°F6.3°C 92% Calm Calm 1.2 mph1.9 kmh 30.07 in1018.3 mb - 0.01 in0.3 mm 0.09 in2.3 mm
04:30 AM 45.6°F7.6°C 43.4°F6.3°C 92% Calm Calm -- 30.07 in1018.3 mb - 0.00 in0.0 mm 0.08 in2.0 mm
04:20 AM 45.9°F7.7°C 43.7°F6.5°C 92% Calm Calm -- 30.08 in1018.6 mb - 0.01 in0.3 mm 0.08 in2.0 mm
04:10 AM 46.0°F7.8°C 43.5°F6.4°C 91% Calm Calm -- 30.08 in1018.6 mb - 0.01 in0.3 mm 0.07 in1.8 mm
04:00 AM 46.2°F7.9°C 43.7°F6.5°C 91% Calm Calm -- 30.09 in1019.0 mb - 0.00 in0.0 mm 0.06 in1.5 mm
03:50 AM 46.4°F8.0°C 43.6°F6.4°C 90% Calm Calm -- 30.09 in1019.0 mb - 0.01 in0.3 mm 0.06 in1.5 mm
03:40 AM 46.7°F8.2°C 43.9°F6.6°C 90% Calm Calm -- 30.09 in1019.0 mb - 0.00 in0.0 mm 0.05 in1.3 mm
03:30 AM 47.0°F8.3°C 44.2°F6.8°C 90% Calm Calm -- 30.10 in1019.3 mb - 0.01 in0.3 mm 0.05 in1.3 mm
03:20 AM 47.2°F8.4°C 44.1°F6.7°C 89% Calm Calm -- 30.10 in1019.3 mb - 0.00 in0.0 mm 0.04 in1.0 mm
03:10 AM 47.5°F8.6°C 44.1°F6.7°C 88% Calm Calm -- 30.10 in1019.3 mb - 0.00 in0.0 mm 0.04 in1.0 mm
03:00 AM 47.7°F8.7°C 44.3°F6.8°C 88% Calm Calm -- 30.11 in1019.6 mb - 0.01 in0.3 mm 0.04 in1.0 mm
02:50 AM 47.9°F8.8°C 44.5°F6.9°C 88% Calm Calm -- 30.11 in1019.6 mb - 0.01 in0.3 mm 0.03 in0.8 mm
02:40 AM 48.3°F9.1°C 44.6°F7.0°C 87% Calm Calm -- 30.11 in1019.6 mb - 0.00 in0.0 mm 0.02 in0.5 mm
02:30 AM 48.7°F9.3°C 44.4°F6.9°C 85% Calm Calm -- 30.12 in1020.0 mb - 0.01 in0.3 mm 0.02 in0.5 mm
02:20 AM 49.1°F9.5°C 44.5°F6.9°C 84% Calm Calm -- 30.13 in1020.3 mb - 0.01 in0.3 mm 0.01 in0.3 mm
02:10 AM 49.8°F9.9°C 43.9°F6.6°C 80% Calm Calm -- 30.13 in1020.3 mb - 0.00 in0.0 mm 0.00 in0.0 mm
02:00 AM 50.1°F10.1°C 42.1°F5.6°C 74% Calm Calm -- 30.14 in1020.7 mb - 0.00 in0.0 mm 0.00 in0.0 mm
01:50 AM 50.3°F10.2°C 39.8°F4.3°C 67% 1.2 mph S1.9 kmh S 2.3 mph3.7 kmh 30.14 in1020.7 mb - 0.00 in0.0 mm 0.00 in0.0 mm
01:40 AM 50.5°F10.3°C 40.7°F4.8°C 69% Calm Calm 1.2 mph1.9 kmh 30.15 in1021.0 mb - 0.00 in0.0 mm 0.00 in0.0 mm
01:30 AM 50.6°F10.3°C 41.2°F5.1°C 70% Calm Calm -- 30.16 in1021.3 mb - 0.00 in0.0 mm 0.00 in0.0 mm
01:20 AM 50.8°F10.4°C 41.4°F5.2°C 70% Calm Calm -- 30.16 in1021.3 mb - 0.00 in0.0 mm 0.00 in0.0 mm
01:10 AM 50.9°F10.5°C 41.1°F5.1°C 69% Calm Calm 1.2 mph1.9 kmh 30.16 in1021.3 mb - 0.00 in0.0 mm 0.00 in0.0 mm
01:00 AM 50.9°F10.5°C 40.3°F4.6°C 67% Calm Calm -- 30.17 in1021.7 mb - 0.00 in0.0 mm 0.00 in0.0 mm
12:50 AM 50.8°F10.4°C 39.5°F4.2°C 65% 1.2 mph WSW1.9 kmh WSW 1.2 mph1.9 kmh 30.18 in1022.0 mb - 0.00 in0.0 mm 0.00 in0.0 mm
12:40 AM 50.8°F10.4°C 40.2°F4.6°C 67% Calm Calm 1.2 mph1.9 kmh 30.18 in1022.0 mb - 0.00 in0.0 mm 0.00 in0.0 mm
12:30 AM 50.8°F10.4°C 40.6°F4.8°C 68% Calm Calm -- 30.18 in1022.0 mb - 0.00 in0.0 mm 0.00 in0.0 mm
12:20 AM 50.8°F10.4°C 41.0°F5.0°C 69% Calm Calm -- 30.19 in1022.4 mb - 0.00 in0.0 mm 0.00 in0.0 mm
12:10 AM 50.7°F10.4°C 40.5°F4.7°C 68% Calm Calm -- 30.19 in1022.4 mb - 0.00 in0.0 mm 0.00 in0.0 mm
12:00 AM 50.6°F10.3°C 41.5°F5.3°C 71% Calm Calm -- 30.20 in1022.7 mb - 0.00 in0.0 mm 0.00 in0.0 mm